Latest Weather Observations for Ballarat

IDV60801

Issued at 1:31 pm EDT Friday 30 January 2015 (issued every 30 minutes, with the page automatically refreshed every 10 minutes)

About weather observations | Map of weather stations | Latest weather observations for VIC | Other Formats
Station Details ID: 089002 Name: BALLARAT AERODROME Lat: -37.51 Lon: 143.79 Height: 435.2 m
Data from the previous 72 hours. | See also: Recent months at Ballarat
Date/Time
EDT
Temp
°C
App
Temp
°C
Dew
Point
Rel
Hum
%
Delta-T
°C
Wind Press
QNH
hPa
Press
MSL
hPa
Rain
since 9 am
mm
Dir
 
Spd
km/h
Gust
km/h
Spd
kts
Gust
kts
30/01:30pm 16.1 11.1 6.3 52 4.9 S 22 33 12 18 1016.0 1014.6 0.0
30/01:00pm 17.5 11.8 6.7 49 5.5 SSE 26 37 14 20 1016.3 1015.0 0.0
30/12:30pm 16.4 11.0 7.9 57 4.4 SE 26 33 14 18 1016.6 1015.3 0.0
30/12:00pm 16.9 10.9 7.0 52 5.0 SSE 28 41 15 22 1016.8 1015.5 0.0
30/11:30am 16.5 11.3 7.4 55 4.6 SSE 24 44 13 24 1016.9 1015.6 0.0
30/11:00am 16.3 10.6 8.3 59 4.1 SSE 28 39 15 21 1017.1 1015.8 0.0
30/10:30am 14.6 9.1 9.0 69 2.9 S 28 37 15 20 1017.1 1015.8 0.0
30/10:00am 13.2 9.1 10.0 81 1.7 S 22 30 12 16 1017.3 1016.0 0.0
30/09:30am 12.7 7.9 8.8 77 2.0 SSE 24 35 13 19 1017.3 1016.0 0.0
30/09:00am 12.5 8.0 9.9 84 1.4 S 24 30 13 16 1017.2 1015.9 0.0
30/08:30am 11.4 7.4 10.3 93 0.6 SSE 22 28 12 15 1017.1 1015.8 0.0
30/08:00am 10.2 6.5 10.0 99 0.1 S 20 26 11 14 1017.0 1015.7 0.0
30/07:30am 9.8 6.5 9.7 99 0.1 S 17 22 9 12 1016.8 1015.5 0.0
30/07:00am 9.8 6.0 9.7 99 0.1 S 20 30 11 16 1016.7 1015.4 0.0
30/06:39am 10.0 6.2 9.9 99 0.1 S 20 26 11 14 1016.6 1015.3 0.0
30/06:30am 10.0 6.2 9.9 99 0.1 S 20 26 11 14 1016.4 1015.1 0.0
30/06:28am 10.0 6.2 9.9 99 0.1 S 20 28 11 15 1016.4 1015.1 0.0
30/06:15am 10.1 6.3 9.9 99 0.1 SSE 20 28 11 15 1016.4 1015.1 0.0
30/06:00am 10.4 6.3 10.2 99 0.1 SSE 22 30 12 16 1016.3 1015.0 0.0
30/05:30am 10.6 7.0 10.4 99 0.1 SSE 20 32 11 17 1016.1 1014.8 0.0
30/05:06am 10.3 6.2 10.1 99 0.1 S 22 28 12 15 1016.1 1014.8 0.0
30/05:00am 10.3 6.6 10.1 99 0.1 S 20 26 11 14 1016.1 1014.8 0.0
30/04:30am 9.3 6.6 9.0 98 0.2 S 13 17 7 9 1016.3 1015.0 0.0
30/04:00am 8.9 6.1 8.6 98 0.1 S 13 15 7 8 1016.5 1015.2 0.0
30/03:30am 9.4 6.6 8.6 95 0.4 S 13 17 7 9 1016.7 1015.4 0.0
30/03:00am 10.0 7.1 8.3 89 0.8 SSE 13 17 7 9 1016.9 1015.6 0.0
30/02:30am 10.7 7.3 9.0 89 0.9 SE 17 24 9 13 1017.0 1015.7 0.0
30/02:00am 10.5 7.9 9.3 92 0.6 S 13 17 7 9 1017.3 1016.0 0.0
30/01:30am 11.2 7.4 9.1 87 1.1 SE 19 24 10 13 1017.6 1016.3 0.0
30/01:00am 11.5 6.8 9.4 87 1.1 SE 24 33 13 18 1017.7 1016.4 0.0
30/12:30am 11.5 7.2 9.4 87 1.1 SE 22 30 12 16 1017.9 1016.6 0.0
30/12:00am 11.5 7.3 9.6 88 1.0 SE 22 28 12 15 1018.0 1016.8 0.0
 
Date/Time
EDT
Temp
°C
App
Temp
°C
Dew
Point
Rel
Hum
%
Delta-T
°C
Wind Press
QNH
hPa
Press
MSL
hPa
Rain
since 9 am
mm
Dir
 
Spd
km/h
Gust
km/h
Spd
kts
Gust
kts
29/11:30pm 11.5 6.8 9.4 87 1.1 SSE 24 33 13 18 1018.2 1016.9 0.0
29/11:00pm 11.5 6.8 9.2 86 1.2 SE 24 37 13 20 1018.4 1017.1 0.0
29/10:30pm 11.6 6.7 8.6 82 1.5 SSE 24 33 13 18 1018.5 1017.2 0.0
29/10:00pm 11.9 6.6 8.4 79 1.8 SSE 26 35 14 19 1018.6 1017.3 0.0
29/09:30pm 12.2 6.4 8.1 76 2.1 SSE 28 37 15 20 1018.6 1017.3 0.0
29/09:00pm 12.6 6.3 7.5 71 2.5 SSE 30 39 16 21 1018.5 1017.3 0.0
29/08:30pm 13.5 6.8 7.3 66 3.1 SE 32 46 17 25 1018.5 1017.2 0.0
29/08:22pm 13.9 7.9 7.0 63 3.4 SSE 28 46 15 25 1018.4 1017.1 0.0
29/08:00pm 14.8 8.4 7.1 60 3.9 SE 30 44 16 24 1018.3 1017.0 0.0
29/07:39pm 15.2 9.1 6.5 56 4.3 SSE 28 46 15 25 1018.2 1016.9 0.0
29/07:30pm 14.5 7.6 6.6 59 3.9 SSE 32 39 17 21 1018.3 1017.0 0.0
29/07:00pm 15.4 8.8 5.9 53 4.7 SSE 30 43 16 23 1017.9 1016.6 0.0
29/06:30pm 16.0 8.7 5.6 50 5.1 SE 33 44 18 24 1017.7 1016.4 0.0
29/06:00pm 16.5 8.7 4.9 46 5.6 SSE 35 48 19 26 1017.7 1016.4 0.0
29/05:30pm 18.4 10.6 4.9 41 6.6 SE 35 46 19 25 1017.8 1016.5 0.0
29/05:00pm 18.3 10.6 5.2 42 6.5 SE 35 46 19 25 1017.8 1016.5 0.0
29/04:30pm 18.7 10.8 4.1 38 7.1 SE 35 46 19 25 1018.0 1016.8 0.0
29/04:00pm 18.8 10.9 4.6 39 7.0 SE 35 46 19 25 1018.6 1017.3 0.0
29/03:43pm 19.7 12.3 5.0 38 7.3 SE 33 44 18 24 1018.7 1017.4 0.0
29/03:39pm 19.2 11.8 4.9 39 7.1 SE 33 44 18 24 1018.7 1017.4 0.0
29/03:30pm 19.2 11.9 4.6 38 7.2 SSE 32 46 17 25 1018.9 1017.6 0.0
29/03:00pm 19.8 12.5 5.5 39 7.2 SE 33 44 18 24 1018.9 1017.6 0.0
29/02:30pm 19.2 11.8 4.2 37 7.3 SE 32 43 17 23 1019.1 1017.8 0.0
29/02:00pm 18.8 10.8 3.8 37 7.2 SE 35 50 19 27 1019.3 1018.0 0.0
29/01:30pm 18.7 11.1 4.1 38 7.1 SE 33 48 18 26 1019.4 1018.1 0.0
29/01:00pm 18.2 10.7 4.7 41 6.6 SE 33 46 18 25 1019.8 1018.5 0.0
29/12:30pm 17.4 9.6 5.0 44 6.1 SE 35 46 19 25 1020.2 1019.0 0.0
29/12:00pm 18.1 9.6 5.0 42 6.4 SE 39 52 21 28 1020.0 1018.7 0.0
29/11:30am 17.2 8.7 5.2 45 5.9 ESE 39 56 21 30 1020.3 1019.1 0.0
29/11:06am 16.1 9.0 5.4 49 5.2 SE 32 50 17 27 1020.4 1019.2 0.0
29/11:00am 16.5 9.0 6.1 50 5.2 SE 35 50 19 27 1020.4 1019.2 0.0
29/10:39am 16.4 9.0 5.1 47 5.5 SE 33 52 18 28 1020.4 1019.2 0.0
29/10:30am 15.4 8.7 7.2 58 4.1 SE 32 43 17 23 1020.4 1019.2 0.0
29/10:00am 15.5 7.5 7.5 59 4.1 SE 39 50 21 27 1020.6 1019.3 0.0
29/09:30am 14.3 7.4 7.4 63 3.5 SE 33 46 18 25 1020.6 1019.3 0.0
29/09:00am 13.4 5.3 7.2 66 3.1 SE 39 52 21 28 1020.4 1019.2 0.0
29/08:30am 12.8 6.0 7.9 72 2.5 SE 33 46 18 25 1019.9 1018.6 0.0
29/08:00am 11.9 5.9 8.6 80 1.7 SE 30 41 16 22 1019.7 1018.4 0.0
29/07:30am 11.0 5.4 8.8 86 1.1 SE 28 37 15 20 1019.6 1018.3 0.0
29/07:00am 10.1 5.2 8.5 90 0.8 SE 24 33 13 18 1019.5 1018.2 0.0
29/06:30am 9.9 5.3 8.3 90 0.8 SE 22 28 12 15 1019.4 1018.1 0.0
29/06:00am 9.8 5.6 8.2 90 0.8 SE 20 28 11 15 1019.2 1017.9 0.0
29/05:30am 9.9 5.2 7.8 87 1.0 SE 22 28 12 15 1019.0 1017.7 0.0
29/05:00am 10.0 5.8 8.3 89 0.8 SE 20 28 11 15 1018.9 1017.6 0.0
29/04:30am 10.3 6.1 8.2 87 1.0 SE 20 30 11 16 1019.0 1017.7 0.0
29/04:00am 10.2 6.0 8.1 87 1.0 SE 20 30 11 16 1018.9 1017.6 0.0
29/03:30am 10.7 4.9 8.1 84 1.3 ESE 28 37 15 20 1019.0 1017.7 0.0
29/03:00am 10.7 6.4 7.8 82 1.4 SE 20 28 11 15 1019.2 1017.9 0.0
29/02:30am 11.0 6.7 7.9 81 1.5 SE 20 32 11 17 1019.4 1018.1 0.0
29/02:00am 11.7 5.9 8.0 78 1.8 ESE 28 39 15 21 1019.7 1018.4 0.0
29/01:30am 12.0 7.5 9.9 87 1.1 SE 24 32 13 17 1019.5 1018.2 0.0
29/01:00am 12.3 7.4 10.0 86 1.2 SE 26 35 14 19 1019.7 1018.4 0.0
29/12:30am 12.8 8.0 10.2 84 1.4 SE 26 37 14 20 1019.8 1018.5 0.0
29/12:00am 12.8 7.5 10.0 83 1.5 SE 28 37 15 20 1019.9 1018.6 0.0
 
Date/Time
EDT
Temp
°C
App
Temp
°C
Dew
Point
Rel
Hum
%
Delta-T
°C
Wind Press
QNH
hPa
Press
MSL
hPa
Rain
since 9 am
mm
Dir
 
Spd
km/h
Gust
km/h
Spd
kts
Gust
kts
28/11:30pm 12.5 6.4 9.7 83 1.5 SE 32 43 17 23 1020.0 1018.7 0.0
28/11:00pm 11.9 7.1 8.7 81 1.6 SSE 24 32 13 17 1020.0 1018.7 0.0
28/10:30pm 12.4 6.6 7.9 74 2.3 SSE 28 37 15 20 1020.0 1018.7 0.0
28/10:00pm 12.8 7.2 7.0 68 2.9 SSE 26 37 14 20 1019.8 1018.5 0.0
28/09:30pm 13.5 7.2 5.9 60 3.7 SSE 28 39 15 21 1019.5 1018.2 0.0
28/09:00pm 14.0 7.0 6.1 59 3.9 SE 32 46 17 25 1019.1 1017.8 0.0
28/08:30pm 14.8 7.8 6.1 56 4.3 SE 32 46 17 25 1018.9 1017.6 0.0
28/08:00pm 15.7 6.7 6.2 53 4.7 SE 43 54 23 29 1018.8 1017.5 0.0
28/07:30pm 16.8 9.2 7.4 54 4.8 SSE 37 50 20 27 1018.4 1017.1 0.0
28/07:11pm 17.6 9.7 7.9 53 5.0 SE 39 57 21 31 1018.2 1016.9 0.0
28/07:00pm 17.8 10.4 8.4 54 4.9 SSE 37 48 20 26 1018.0 1016.8 0.0
28/06:30pm 18.6 10.7 8.0 50 5.6 SE 39 56 21 30 1017.9 1016.6 0.0
28/06:00pm 18.7 11.0 7.2 47 5.9 SE 37 48 20 26 1017.8 1016.5 0.0
28/05:41pm 19.1 11.0 7.2 46 6.2 SE 39 61 21 33 1017.7 1016.4 0.0
28/05:30pm 18.4 10.4 7.5 49 5.6 SE 39 52 21 28 1017.8 1016.5 0.0
28/05:23pm 19.6 12.5 8.0 47 6.1 SE 35 54 19 29 1017.6 1016.3 0.0
28/05:00pm 20.0 11.7 7.7 45 6.4 SE 41 56 22 30 1017.7 1016.4 0.0
28/04:30pm 21.5 14.1 9.7 47 6.5 SE 39 52 21 28 1017.7 1016.4 0.0
28/04:01pm 20.1 12.6 7.8 45 6.5 SE 37 56 20 30 1017.6 1016.3 0.0
28/04:00pm 20.2 12.1 7.2 43 6.8 SE 39 56 21 30 1017.6 1016.3 0.0
28/03:59pm 20.4 12.8 7.7 44 6.7 SE 37 56 20 30 1017.6 1016.3 0.0
28/03:30pm 21.8 13.8 7.6 40 7.5 SE 39 56 21 30 1017.5 1016.2 0.0
28/03:00pm 21.1 12.6 7.0 40 7.3 SE 41 59 22 32 1017.6 1016.3 0.0
28/02:46pm 21.3 12.4 6.8 39 7.5 SE 43 61 23 33 1017.5 1016.2 0.0
28/02:30pm 20.8 11.7 6.0 38 7.6 SE 43 54 23 29 1017.6 1016.3 0.0
28/02:00pm 20.4 11.5 7.7 44 6.7 SE 44 57 24 31 1017.8 1016.5 0.0
28/01:30pm 19.9 11.1 7.3 44 6.6 SE 43 59 23 32 1018.2 1016.9 0.0
28/01:23pm 19.8 11.4 7.5 45 6.4 SE 41 59 22 32 1018.3 1017.0 0.0
28/01:00pm 19.8 11.4 7.2 44 6.5 SE 41 54 22 29 1018.3 1017.0 0.0
28/12:54pm 19.8 11.4 7.5 45 6.4 SE 41 59 22 32 1018.3 1017.0 0.0
28/12:30pm 19.3 11.3 7.4 46 6.2 SE 39 52 21 28 1018.2 1016.9 0.0
28/12:00pm 17.9 9.3 6.7 48 5.7 SE 41 54 22 29 1018.3 1017.0 0.0
28/11:31am 17.7 10.1 7.7 52 5.2 SE 37 56 20 30 1018.5 1017.2 0.0
28/11:30am 18.2 10.5 8.5 53 5.1 SE 39 56 21 30 1018.5 1017.2 0.0
28/11:00am 17.2 9.2 7.5 53 5.0 SE 39 46 21 25 1018.5 1017.2 0.0
28/10:30am 16.6 9.8 7.8 56 4.5 SE 33 44 18 24 1018.4 1017.1 0.0
28/10:02am 16.0 8.1 8.0 59 4.1 ESE 39 57 21 31 1018.3 1017.0 0.0
28/10:00am 15.6 7.3 7.9 60 3.9 ESE 41 57 22 31 1018.3 1017.0 0.0
28/09:30am 14.6 7.7 8.8 68 3.0 SE 35 48 19 26 1018.2 1016.9 0.0
28/09:00am 13.9 7.0 8.7 71 2.7 SE 35 46 19 25 1017.9 1016.6 0.0
28/08:30am 13.7 7.9 9.6 76 2.2 SE 30 39 16 21 1017.6 1016.3 0.0
28/08:00am 12.0 6.6 9.4 84 1.3 SE 28 39 15 21 1017.4 1016.1 0.0
28/07:30am 11.1 6.3 9.0 87 1.1 SSE 24 35 13 19 1017.0 1015.7 0.0
28/07:00am 10.2 5.6 8.0 86 1.1 SSE 22 28 12 15 1016.8 1015.5 0.0
28/06:30am 10.0 5.3 7.9 87 1.0 SSE 22 32 12 17 1016.5 1015.2 0.0
28/06:00am 10.1 4.7 7.9 86 1.1 SSE 26 35 14 19 1016.4 1015.1 0.0
28/05:30am 10.0 4.0 8.6 91 0.7 SSE 30 37 16 20 1016.3 1015.0 0.0
28/05:00am 9.9 3.9 8.8 93 0.6 SSE 30 37 16 20 1016.1 1014.8 0.0
28/04:30am 9.8 3.8 8.6 92 0.6 SSE 30 39 16 21 1016.1 1014.8 0.0
28/04:00am 10.2 4.6 8.6 90 0.8 SSE 28 35 15 19 1016.1 1014.8 0.0
28/03:30am 10.2 4.2 8.5 89 0.9 SSE 30 39 16 21 1016.1 1014.8 0.0
28/03:00am 9.7 3.9 7.8 88 0.9 SSE 28 37 15 20 1016.3 1015.0 0.0
28/02:30am 9.9 3.3 7.7 86 1.1 SSE 32 41 17 22 1016.3 1015.0 0.0
28/02:00am 10.0 3.2 7.8 86 1.1 SSE 33 46 18 25 1016.6 1015.3 0.0
28/01:30am 10.1 2.2 7.7 85 1.2 SSE 39 52 21 28 1016.5 1015.2 0.0
28/01:00am 10.3 1.6 7.5 83 1.4 SSE 43 57 23 31 1016.6 1015.3 0.0
28/12:30am 10.4 1.7 7.8 84 1.3 SSE 43 57 23 31 1017.0 1015.7 0.0
28/12:29am 10.4 2.1 7.8 84 1.3 SSE 41 57 22 31 1017.0 1015.7 0.0
28/12:00am 10.3 3.7 7.7 84 1.3 SSE 32 39 17 21 1017.6 1016.3 0.0
 
Date/Time
EDT
Temp
°C
App
Temp
°C
Dew
Point
Rel
Hum
%
Delta-T
°C
Wind Press
QNH
hPa
Press
MSL
hPa
Rain
since 9 am
mm
Dir
 
Spd
km/h
Gust
km/h
Spd
kts
Gust
kts
27/11:30pm 10.6 4.0 7.7 82 1.4 SSE 32 43 17 23 1017.7 1016.4 0.0
27/11:00pm 10.8 3.9 7.3 79 1.7 SE 33 46 18 25 1017.9 1016.6 0.0
27/10:30pm 11.7 5.4 7.4 75 2.1 SSE 30 41 16 22 1017.8 1016.5 0.0
27/10:00pm 12.0 6.0 6.9 71 2.5 SSE 28 39 15 21 1017.6 1016.3 0.0
27/09:30pm 11.8 4.3 6.1 68 2.7 SSE 35 50 19 27 1017.5 1016.2 0.0
27/09:27pm 11.9 4.9 6.0 67 2.8 SSE 32 50 17 27 1017.5 1016.2 0.0
27/09:00pm 11.9 4.7 5.1 63 3.2 SSE 32 46 17 25 1017.3 1016.0 0.0
27/08:48pm 11.9 5.1 4.9 62 3.3 SSE 30 48 16 26 1017.3 1016.0 0.0
27/08:30pm 12.1 4.7 5.0 62 3.3 SSE 33 48 18 26 1017.1 1015.8 0.0
27/08:01pm 13.1 5.2 4.3 55 4.1 SSE 35 56 19 30 1016.9 1015.6 0.0
27/08:00pm 13.1 5.2 4.3 55 4.1 SSE 35 48 19 26 1016.9 1015.6 0.0
27/07:30pm 13.5 6.1 4.9 56 4.1 SSE 33 46 18 25 1016.7 1015.4 0.0
27/07:05pm 14.5 7.2 5.6 55 4.3 SSE 33 52 18 28 1016.5 1015.2 0.0
27/07:00pm 14.3 6.3 5.7 56 4.2 SSE 37 52 20 28 1016.5 1015.2 0.0
27/06:30pm 14.0 5.6 5.6 57 4.1 SSE 39 54 21 29 1016.3 1015.0 0.0
27/06:01pm 14.7 6.1 6.5 58 4.1 SE 41 59 22 32 1016.0 1014.6 0.0
27/06:00pm 14.5 6.2 6.1 57 4.1 SE 39 54 21 29 1016.0 1014.6 0.0
27/05:54pm 14.7 7.5 6.0 56 4.3 SSE 33 52 18 28 1016.0 1014.6 0.0
27/05:30pm 16.0 7.5 5.3 49 5.2 SE 39 56 21 30 1015.8 1014.4 0.0
27/05:16pm 17.3 9.4 4.6 43 6.2 SSE 35 54 19 29 1015.7 1014.3 0.0
27/05:00pm 17.5 9.2 4.1 41 6.4 SE 37 52 20 28 1015.5 1014.2 0.0
27/04:30pm 17.7 9.8 4.3 41 6.5 SSE 35 46 19 25 1015.8 1014.4 0.0
27/04:00pm 17.5 10.0 4.5 42 6.3 SSE 33 48 18 26 1016.0 1014.6 0.0
27/03:55pm 18.7 11.0 5.5 42 6.6 SSE 35 54 19 29 1016.0 1014.6 0.0
27/03:30pm 18.8 11.5 5.3 41 6.7 SE 33 46 18 25 1016.0 1014.6 0.0
27/03:00pm 18.1 10.4 3.6 38 6.9 SSE 33 46 18 25 1015.9 1014.5 0.0
27/02:30pm 18.9 11.7 5.0 40 6.9 SE 32 41 17 22 1016.0 1014.6 0.0
27/02:00pm 18.3 11.2 5.5 43 6.4 SE 32 44 17 24 1016.2 1014.9 0.0

Other Formats:

Comma delimited format used in spreadsheet applications
http://www.bom.gov.au/fwo/IDV60801/IDV60801.94852.axf

JavaScript Object Notation format (JSON) in row-major order
http://www.bom.gov.au/fwo/IDV60801/IDV60801.94852.json